createdAt,value
2019-05-01T00:02:36.894Z,66.20
2019-05-01T00:05:27.897Z,63.80
2019-05-01T00:08:00.055Z,56.20
2019-05-01T00:10:32.669Z,60.40
2019-05-01T00:13:05.227Z,63.80
2019-05-01T00:15:38.929Z,66.00
2019-05-01T00:18:10.947Z,65.80
2019-05-01T00:20:42.734Z,62.00
2019-05-01T00:23:14.653Z,69.00
2019-05-01T00:25:46.458Z,60.60
2019-05-01T00:28:19.316Z,65.00
2019-05-01T00:30:51.158Z,66.20
2019-05-01T00:33:22.895Z,65.20
2019-05-01T00:35:54.662Z,70.00
2019-05-01T00:38:26.302Z,64.40
2019-05-01T00:40:58.411Z,67.20
2019-05-01T00:43:30.183Z,64.00
2019-05-01T00:46:02.599Z,67.40
2019-05-01T00:48:34.751Z,65.40
2019-05-01T00:51:06.631Z,66.60
2019-05-01T00:53:39.725Z,63.80
2019-05-01T00:56:21.992Z,64.00
2019-05-01T00:59:02.829Z,67.00
2019-05-01T01:02:05.866Z,68.60
2019-05-01T01:04:37.840Z,65.20
2019-05-01T01:07:09.934Z,61.40
2019-05-01T01:09:41.563Z,67.40
2019-05-01T01:12:13.565Z,64.60
2019-05-01T01:14:45.152Z,64.80
2019-05-01T01:17:17.209Z,66.60
2019-05-01T01:19:49.081Z,64.80
2019-05-01T01:22:21.244Z,66.00
2019-05-01T01:24:53.683Z,62.80
2019-05-01T01:27:26.731Z,68.20
2019-05-01T01:29:58.483Z,71.20
2019-05-01T01:32:30.648Z,72.40
2019-05-01T01:35:02.494Z,65.80
2019-05-01T01:37:35.401Z,65.00
2019-05-01T01:40:08.288Z,64.40
2019-05-01T01:42:41.533Z,61.60
2019-05-01T01:45:32.327Z,61.60
2019-05-01T01:48:18.301Z,62.00
2019-05-01T01:50:50.062Z,62.40
2019-05-01T01:53:24.347Z,62.00
2019-05-01T01:55:56.889Z,62.60
2019-05-01T01:58:29.118Z,64.40
2019-05-01T02:01:22.029Z,65.00
2019-05-01T02:03:58.724Z,64.20
2019-05-01T02:06:30.486Z,61.20
2019-05-01T02:09:02.353Z,57.00
2019-05-01T02:11:35.626Z,57.60
2019-05-01T02:14:07.877Z,58.80
2019-05-01T02:16:39.703Z,58.00
2019-05-01T02:19:11.635Z,52.60
2019-05-01T02:21:43.297Z,49.40
2019-05-01T02:24:15.048Z,50.00
2019-05-01T02:26:49.650Z,57.40
2019-05-01T02:29:30.651Z,55.40
2019-05-01T02:32:02.996Z,36.00
2019-05-01T02:34:36.958Z,50.20
2019-05-01T02:37:11.623Z,47.80
2019-05-01T02:39:46.083Z,47.60
2019-05-01T02:42:21.008Z,47.00
2019-05-01T02:44:56.519Z,44.20
2019-05-01T02:47:33.562Z,44.40
2019-05-01T02:50:10.690Z,50.80
2019-05-01T02:52:44.885Z,50.60
2019-05-01T02:55:29.855Z,42.00
2019-05-01T02:58:02.724Z,50.40
2019-05-01T03:00:35.436Z,49.20
2019-05-01T03:03:08.026Z,47.60
2019-05-01T03:05:42.587Z,47.80
2019-05-01T03:08:14.744Z,48.40
2019-05-01T03:10:47.438Z,47.00
2019-05-01T03:13:19.720Z,45.80
2019-05-01T03:15:52.469Z,51.00
2019-05-01T03:18:30.437Z,54.80
2019-05-01T03:21:24.210Z,56.80
2019-05-01T03:24:04.641Z,49.40
2019-05-01T03:26:37.347Z,47.20
2019-05-01T03:29:10.173Z,51.40
2019-05-01T03:31:42.790Z,47.40
2019-05-01T03:34:14.873Z,43.00
2019-05-01T03:36:46.969Z,38.40
2019-05-01T03:39:21.137Z,45.60
2019-05-01T03:41:54.027Z,47.20
2019-05-01T03:44:26.317Z,48.40
2019-05-01T03:46:58.904Z,30.20
2019-05-01T03:49:31.025Z,43.20
2019-05-01T03:52:03.590Z,27.40
2019-05-01T03:54:35.631Z,27.80
2019-05-01T03:57:12.395Z,28.00
2019-05-01T03:59:44.275Z,31.80
2019-05-01T04:02:36.454Z,34.60
2019-05-01T04:05:08.597Z,29.60
2019-05-01T04:07:41.880Z,32.20
2019-05-01T04:10:14.464Z,32.00
2019-05-01T04:12:47.099Z,30.40
2019-05-01T04:15:19.478Z,32.20
2019-05-01T04:17:55.398Z,33.40
2019-05-01T04:20:27.795Z,31.00
2019-05-01T04:23:00.847Z,27.60
2019-05-01T04:25:36.662Z,21.20
2019-05-01T04:28:26.365Z,30.80
2019-05-01T04:31:14.731Z,33.40
2019-05-01T04:33:48.437Z,30.80
2019-05-01T04:36:27.255Z,27.20
2019-05-01T04:38:59.775Z,24.60
2019-05-01T04:41:32.148Z,27.00
2019-05-01T04:44:04.223Z,28.00
2019-05-01T04:46:37.335Z,28.00
2019-05-01T04:49:09.669Z,23.60
2019-05-01T04:51:42.209Z,22.80
2019-05-01T04:54:14.717Z,23.40
2019-05-01T04:56:47.280Z,26.40
2019-05-01T04:59:22.692Z,25.20
2019-05-01T05:01:58.274Z,26.00
2019-05-01T05:04:30.162Z,27.20
2019-05-01T05:07:03.026Z,27.20
2019-05-01T05:09:45.616Z,26.40
2019-05-01T05:12:30.923Z,26.20
2019-05-01T05:15:20.706Z,27.40
2019-05-01T05:17:52.583Z,26.20
2019-05-01T05:20:25.097Z,24.40
2019-05-01T05:22:57.262Z,28.00
2019-05-01T05:25:29.409Z,29.00
2019-05-01T05:28:02.039Z,22.40
2019-05-01T05:30:34.671Z,31.80
2019-05-01T05:33:18.225Z,29.00
2019-05-01T05:35:44.019Z,23.80
2019-05-01T05:38:24.795Z,27.20
2019-05-01T05:41:00.371Z,32.80
2019-05-01T05:43:32.574Z,29.20
2019-05-01T05:46:05.073Z,29.60
2019-05-01T05:48:36.897Z,27.40
2019-05-01T05:51:18.940Z,29.40
2019-05-01T05:53:56.587Z,23.80
2019-05-01T05:56:34.135Z,26.80
2019-05-01T05:59:12.763Z,25.20
2019-05-01T06:01:55.794Z,21.20
2019-05-01T06:04:58.764Z,17.80
2019-05-01T06:07:46.603Z,20.80
2019-05-01T06:10:29.608Z,19.60
2019-05-01T06:13:21.838Z,21.60
2019-05-01T06:16:05.203Z,16.60
2019-05-01T06:18:54.154Z,19.80
2019-05-01T06:21:42.576Z,17.80
2019-05-01T06:24:21.191Z,21.20
2019-05-01T06:26:53.200Z,19.40
2019-05-01T06:29:25.146Z,19.80
2019-05-01T06:31:58.851Z,20.00
2019-05-01T06:34:31.366Z,11.60
2019-05-01T06:37:03.283Z,19.00
2019-05-01T06:39:35.764Z,18.60
2019-05-01T06:42:09.748Z,18.40
2019-05-01T06:44:54.196Z,17.20
2019-05-01T06:47:44.296Z,15.80
2019-05-01T06:50:37.088Z,23.00
2019-05-01T06:53:08.093Z,20.80
2019-05-01T06:55:39.992Z,23.00
2019-05-01T06:58:14.745Z,22.00
2019-05-01T07:00:45.456Z,25.40
2019-05-01T07:03:17.841Z,21.80
2019-05-01T07:05:54.380Z,21.40
2019-05-01T07:08:24.805Z,18.80
2019-05-01T07:10:57.449Z,24.80
2019-05-01T07:13:29.114Z,15.00
2019-05-01T07:16:03.259Z,20.00
2019-05-01T07:18:36.145Z,21.00
2019-05-01T07:21:08.048Z,21.80
2019-05-01T07:23:39.885Z,23.20
2019-05-01T07:26:13.733Z,18.00
2019-05-01T07:28:47.242Z,15.00
2019-05-01T07:31:19.821Z,19.40
2019-05-01T07:33:52.477Z,15.80
2019-05-01T07:36:24.745Z,20.60
2019-05-01T07:38:56.594Z,17.60
2019-05-01T07:41:29.279Z,13.80
2019-05-01T07:44:16.281Z,18.00
2019-05-01T07:47:06.913Z,19.00
2019-05-01T07:50:05.594Z,18.00
2019-05-01T07:52:37.787Z,19.60
2019-05-01T07:55:13.139Z,19.40
2019-05-01T07:57:46.319Z,17.80
2019-05-01T08:00:29.660Z,20.00
2019-05-01T08:03:02.637Z,19.60
2019-05-01T08:05:35.620Z,20.60
2019-05-01T08:08:08.178Z,20.60
2019-05-01T08:10:40.980Z,10.60
2019-05-01T08:13:12.747Z,15.00
2019-05-01T08:15:44.584Z,18.20
2019-05-01T08:18:24.107Z,16.80
2019-05-01T08:21:08.381Z,21.20
2019-05-01T08:23:42.640Z,15.80
2019-05-01T08:26:14.226Z,15.60
2019-05-01T08:29:06.835Z,22.20
2019-05-01T08:31:48.784Z,15.40
2019-05-01T08:34:25.408Z,17.20
2019-05-01T08:36:55.853Z,17.20
2019-05-01T08:39:28.378Z,17.20
2019-05-01T08:42:03.070Z,16.40
2019-05-01T08:44:36.690Z,16.20
2019-05-01T08:47:27.763Z,11.00
2019-05-01T08:50:05.453Z,14.40
2019-05-01T08:52:37.422Z,14.80
2019-05-01T08:55:10.837Z,17.00
2019-05-01T08:57:42.953Z,22.60
2019-05-01T09:00:15.190Z,17.20
2019-05-01T09:02:47.120Z,22.60
2019-05-01T09:05:28.558Z,19.40
2019-05-01T09:07:55.957Z,13.60
2019-05-01T09:10:29.017Z,17.40
2019-05-01T09:13:00.817Z,16.60
2019-05-01T09:15:32.902Z,13.80
2019-05-01T09:18:04.551Z,17.80
2019-05-01T09:20:37.334Z,13.20
2019-05-01T09:23:13.901Z,11.00
2019-05-01T09:25:49.546Z,16.20
2019-05-01T09:28:27.680Z,17.40
2019-05-01T09:31:03.375Z,13.80
2019-05-01T09:33:37.159Z,12.20
2019-05-01T09:36:09.092Z,12.60
2019-05-01T09:38:41.580Z,10.00
2019-05-01T09:41:14.578Z,12.60
2019-05-01T09:43:46.804Z,14.20
2019-05-01T09:46:18.813Z,14.00
2019-05-01T09:48:51.500Z,15.00
2019-05-01T09:51:47.525Z,5.20
2019-05-01T09:54:38.187Z,18.20
2019-05-01T09:57:10.161Z,13.40
2019-05-01T09:59:42.403Z,10.60
2019-05-01T10:02:15.037Z,11.00
2019-05-01T10:04:46.707Z,10.40
2019-05-01T10:07:19.371Z,13.60
2019-05-01T10:09:52.219Z,11.00
2019-05-01T10:12:25.778Z,10.40
2019-05-01T10:14:57.664Z,12.80
2019-05-01T10:17:29.552Z,13.80
2019-05-01T10:20:01.359Z,12.40
2019-05-01T10:22:37.296Z,12.20
2019-05-01T10:25:08.467Z,12.80
2019-05-01T10:27:44.332Z,14.20
2019-05-01T10:30:24.283Z,10.40
2019-05-01T10:33:00.611Z,13.60
2019-05-01T10:35:42.988Z,11.60
2019-05-01T10:38:14.015Z,12.20
2019-05-01T10:40:46.521Z,15.80
2019-05-01T10:43:18.969Z,10.40
2019-05-01T10:45:50.900Z,17.20
2019-05-01T10:48:22.474Z,17.00
2019-05-01T10:50:54.776Z,12.80
2019-05-01T10:53:26.545Z,12.00
2019-05-01T10:55:59.471Z,17.60
2019-05-01T10:58:31.561Z,18.00
2019-05-01T11:01:16.102Z,17.60
2019-05-01T11:03:47.849Z,9.00
2019-05-01T11:06:19.767Z,7.40
2019-05-01T11:08:51.976Z,10.60
2019-05-01T11:11:23.902Z,13.20
2019-05-01T11:13:56.036Z,6.20
2019-05-01T11:16:28.048Z,10.00
2019-05-01T11:18:59.719Z,13.40
2019-05-01T11:21:31.559Z,11.20
2019-05-01T11:24:03.092Z,8.80
2019-05-01T11:26:35.319Z,11.00
2019-05-01T11:29:07.366Z,14.60
2019-05-01T11:31:49.069Z,13.20
2019-05-01T11:34:38.647Z,13.00
2019-05-01T11:37:28.825Z,10.80
2019-05-01T11:40:31.984Z,9.80
2019-05-01T11:43:03.681Z,10.00
2019-05-01T11:45:35.989Z,9.80
2019-05-01T11:48:08.223Z,8.20
2019-05-01T11:50:40.087Z,12.00
2019-05-01T11:53:11.935Z,10.60
2019-05-01T11:55:43.764Z,10.40
2019-05-01T11:58:15.809Z,11.40
2019-05-01T12:00:48.781Z,8.40
2019-05-01T12:03:23.837Z,11.40
2019-05-01T12:05:55.489Z,11.20
2019-05-01T12:08:27.365Z,12.00
2019-05-01T12:10:59.906Z,13.20
2019-05-01T12:13:43.249Z,11.20
2019-05-01T12:16:16.510Z,8.20
2019-05-01T12:18:48.292Z,8.80
2019-05-01T12:21:20.068Z,14.40
2019-05-01T12:23:51.868Z,13.20
2019-05-01T12:26:23.891Z,9.60
2019-05-01T12:28:55.528Z,14.80
2019-05-01T12:31:27.287Z,12.40
2019-05-01T12:33:59.007Z,11.00
2019-05-01T12:36:36.593Z,10.80
2019-05-01T12:39:06.565Z,10.00
2019-05-01T12:41:46.048Z,13.20
2019-05-01T12:44:18.091Z,10.00
2019-05-01T12:46:59.288Z,12.00
2019-05-01T12:49:31.398Z,13.40
2019-05-01T12:52:10.715Z,5.60
2019-05-01T12:55:03.204Z,11.80
2019-05-01T12:57:35.014Z,5.00
2019-05-01T13:00:09.274Z,16.80
2019-05-01T13:02:41.317Z,15.00
2019-05-01T13:05:13.218Z,12.60
2019-05-01T13:07:45.103Z,18.00
2019-05-01T13:10:17.053Z,14.60
2019-05-01T13:12:48.910Z,14.80
2019-05-01T13:15:20.698Z,9.00
2019-05-01T13:17:53.150Z,17.20
2019-05-01T13:20:24.526Z,13.80
2019-05-01T13:22:56.372Z,18.60
2019-05-01T13:25:27.817Z,16.80
2019-05-01T13:28:24.145Z,17.40
2019-05-01T13:31:14.680Z,20.00
2019-05-01T13:33:46.943Z,20.80
2019-05-01T13:36:18.703Z,22.20
2019-05-01T13:38:50.613Z,24.00
2019-05-01T13:41:22.196Z,38.20
2019-05-01T13:43:53.879Z,32.60
2019-05-01T13:46:25.604Z,32.20
2019-05-01T13:48:57.536Z,24.40
2019-05-01T13:51:29.204Z,29.00
2019-05-01T13:54:01.711Z,27.00
2019-05-01T13:56:33.487Z,28.80
2019-05-01T13:59:07.456Z,34.20
2019-05-01T14:01:39.462Z,29.20
2019-05-01T14:04:11.872Z,36.80
2019-05-01T14:06:43.796Z,42.00
2019-05-01T14:09:17.553Z,47.60
2019-05-01T14:11:49.863Z,46.00
2019-05-01T14:14:21.631Z,44.60
2019-05-01T14:16:53.440Z,47.80
2019-05-01T14:19:25.153Z,40.80
2019-05-01T14:22:21.322Z,44.20
2019-05-01T14:24:56.794Z,45.80
2019-05-01T14:27:28.558Z,44.60
2019-05-01T14:30:00.274Z,48.20
2019-05-01T14:32:32.124Z,42.60
2019-05-01T14:35:03.715Z,41.20
2019-05-01T14:37:54.025Z,41.00
2019-05-01T14:40:27.471Z,47.00
2019-05-01T14:42:59.379Z,39.60
2019-05-01T14:45:31.390Z,38.60
2019-05-01T14:48:03.495Z,47.40
2019-05-01T14:50:35.851Z,37.20
2019-05-01T14:53:08.016Z,50.40
2019-05-01T14:55:40.507Z,45.40
2019-05-01T14:58:13.510Z,45.60
2019-05-01T15:00:45.291Z,42.80
2019-05-01T15:03:17.487Z,44.80
2019-05-01T15:05:49.354Z,45.60
2019-05-01T15:08:21.265Z,40.40
2019-05-01T15:10:53.610Z,44.60
2019-05-01T15:13:34.998Z,40.20
2019-05-01T15:16:14.085Z,40.60
2019-05-01T15:19:07.973Z,44.80
2019-05-01T15:21:40.123Z,37.80
2019-05-01T15:24:11.898Z,37.80
2019-05-01T15:26:43.830Z,38.60
2019-05-01T15:29:15.679Z,44.60
2019-05-01T15:31:47.419Z,45.60
2019-05-01T15:34:18.765Z,39.00
2019-05-01T15:36:50.847Z,46.80
2019-05-01T15:39:37.193Z,41.80
2019-05-01T15:42:26.686Z,44.20
2019-05-01T15:44:58.610Z,40.20
2019-05-01T15:47:30.423Z,31.40
2019-05-01T15:50:02.299Z,45.60
2019-05-01T15:52:33.996Z,48.40
2019-05-01T15:55:06.372Z,44.80
2019-05-01T15:57:38.303Z,51.20
2019-05-01T16:00:13.276Z,57.40
2019-05-01T16:02:45.795Z,59.80
2019-05-01T16:05:17.756Z,54.60
2019-05-01T16:07:49.473Z,55.40
2019-05-01T16:10:26.649Z,54.80
2019-05-01T16:13:01.012Z,57.80
2019-05-01T16:15:36.356Z,57.80
2019-05-01T16:18:08.293Z,54.40
2019-05-01T16:20:39.743Z,60.00
2019-05-01T16:23:11.522Z,58.00
2019-05-01T16:25:43.227Z,57.60
2019-05-01T16:28:15.092Z,59.60
2019-05-01T16:30:47.233Z,61.80
2019-05-01T16:33:19.094Z,69.20
2019-05-01T16:35:51.498Z,65.60
2019-05-01T16:38:37.260Z,60.00
2019-05-01T16:41:09.727Z,56.20
2019-05-01T16:43:42.057Z,60.60
2019-05-01T16:46:13.706Z,58.00
2019-05-01T16:48:45.886Z,57.00
2019-05-01T16:51:17.515Z,56.20
2019-05-01T16:53:49.227Z,52.20
2019-05-01T16:56:20.965Z,56.60
2019-05-01T16:58:52.908Z,52.20
2019-05-01T17:01:49.795Z,55.40
2019-05-01T17:04:30.104Z,51.00
2019-05-01T17:07:17.053Z,54.00
2019-05-01T17:10:14.240Z,53.00
2019-05-01T17:12:49.648Z,54.60
2019-05-01T17:15:29.251Z,55.20
2019-05-01T17:18:01.265Z,54.00
2019-05-01T17:20:33.258Z,49.20
2019-05-01T17:23:06.491Z,46.40
2019-05-01T17:25:38.210Z,49.40
2019-05-01T17:28:10.291Z,45.60
2019-05-01T17:30:44.700Z,49.80
2019-05-01T17:33:20.655Z,47.40
2019-05-01T17:35:50.198Z,43.40
2019-05-01T17:38:22.228Z,44.20
2019-05-01T17:40:54.108Z,43.00
2019-05-01T17:43:26.322Z,50.00
2019-05-01T17:45:57.870Z,50.00
2019-05-01T17:48:33.750Z,52.80
2019-05-01T17:51:03.537Z,49.80
2019-05-01T17:53:35.158Z,51.20
2019-05-01T17:56:10.110Z,51.40
2019-05-01T17:58:40.271Z,49.20
2019-05-01T18:01:33.410Z,61.00
2019-05-01T18:04:19.438Z,58.00
2019-05-01T18:06:51.742Z,65.40
2019-05-01T18:09:23.526Z,66.80
2019-05-01T18:11:55.267Z,60.60
2019-05-01T18:14:26.956Z,53.00
2019-05-01T18:16:59.404Z,60.00
2019-05-01T18:19:31.237Z,53.20
2019-05-01T18:22:16.078Z,49.00
2019-05-01T18:25:06.827Z,47.40
2019-05-01T18:28:16.407Z,55.60
2019-05-01T18:30:51.683Z,51.40
2019-05-01T18:33:25.857Z,49.20
2019-05-01T18:35:55.648Z,47.40
2019-05-01T18:38:43.016Z,48.20
2019-05-01T18:41:27.400Z,50.40
2019-05-01T18:43:58.946Z,49.00
2019-05-01T18:46:30.961Z,48.20
2019-05-01T18:49:02.782Z,46.40
2019-05-01T18:51:36.231Z,50.60
2019-05-01T18:54:08.020Z,49.20
2019-05-01T18:56:39.765Z,49.00
2019-05-01T18:59:11.596Z,44.60
2019-05-01T19:01:48.408Z,49.40
2019-05-01T19:04:18.383Z,49.80
2019-05-01T19:06:51.382Z,56.40
2019-05-01T19:09:29.696Z,47.80
2019-05-01T19:11:56.480Z,51.60
2019-05-01T19:14:30.641Z,56.20
2019-05-01T19:17:02.060Z,50.80
2019-05-01T19:19:33.821Z,61.00
2019-05-01T19:22:06.393Z,56.80
2019-05-01T19:24:39.994Z,57.20
2019-05-01T19:27:14.171Z,56.40
2019-05-01T19:29:47.257Z,60.00
2019-05-01T19:32:19.995Z,58.80
2019-05-01T19:34:53.747Z,55.40
2019-05-01T19:37:29.265Z,59.20
2019-05-01T19:39:59.302Z,60.60
2019-05-01T19:42:31.031Z,51.00
2019-05-01T19:45:02.609Z,56.20
2019-05-01T19:47:35.379Z,62.00
2019-05-01T19:50:10.307Z,63.20
2019-05-01T19:52:42.390Z,67.80
2019-05-01T19:55:14.167Z,67.20
2019-05-01T19:57:45.806Z,65.00
2019-05-01T20:00:21.761Z,67.40
2019-05-01T20:02:54.310Z,67.40
2019-05-01T20:05:28.857Z,60.00
2019-05-01T20:08:00.884Z,62.00
2019-05-01T20:10:32.586Z,58.80
2019-05-01T20:13:07.130Z,62.20
2019-05-01T20:15:37.441Z,57.20
2019-05-01T20:18:09.148Z,58.00
2019-05-01T20:20:41.076Z,59.80
2019-05-01T20:23:12.716Z,61.40
2019-05-01T20:25:44.515Z,59.80
2019-05-01T20:28:16.000Z,54.00
2019-05-01T20:30:49.527Z,61.00
2019-05-01T20:33:21.563Z,62.40
2019-05-01T20:36:00.574Z,56.80
2019-05-01T20:38:30.385Z,59.00
2019-05-01T20:41:01.899Z,56.40
2019-05-01T20:43:38.178Z,62.40
2019-05-01T20:46:07.664Z,58.80
2019-05-01T20:48:39.901Z,61.00
2019-05-01T20:51:11.542Z,56.20
2019-05-01T20:53:43.250Z,60.60
2019-05-01T20:56:38.469Z,58.80
2019-05-01T20:59:10.342Z,59.40
2019-05-01T21:01:42.822Z,60.00
2019-05-01T21:04:36.074Z,58.80
2019-05-01T21:07:19.916Z,54.80
2019-05-01T21:09:57.303Z,55.75
2019-05-01T21:12:23.925Z,59.80
2019-05-01T21:14:55.376Z,58.00
2019-05-01T21:17:27.257Z,51.60
2019-05-01T21:19:58.733Z,57.00
2019-05-01T21:22:30.360Z,54.40
2019-05-01T21:25:01.886Z,55.80
2019-05-01T21:27:33.679Z,53.20
2019-05-01T21:30:06.047Z,57.00
2019-05-01T21:32:37.516Z,47.20
2019-05-01T21:35:09.473Z,54.40
2019-05-01T21:37:41.137Z,52.20
2019-05-01T21:40:13.718Z,52.80
2019-05-01T21:42:47.341Z,49.60
2019-05-01T21:45:18.866Z,53.00
2019-05-01T21:47:52.756Z,52.60
2019-05-01T21:50:26.479Z,46.00
2019-05-01T21:53:03.247Z,48.80
2019-05-01T21:55:32.435Z,52.60
2019-05-01T21:58:05.181Z,58.20
2019-05-01T22:00:40.729Z,50.40
2019-05-01T22:03:16.592Z,53.40
2019-05-01T22:05:50.374Z,56.20
2019-05-01T22:08:22.442Z,55.20
2019-05-01T22:10:57.570Z,56.80
2019-05-01T22:13:29.851Z,53.80
2019-05-01T22:16:08.709Z,59.60
2019-05-01T22:18:47.138Z,56.20
2019-05-01T22:21:43.556Z,48.00
2019-05-01T22:24:41.512Z,56.80
2019-05-01T22:27:22.967Z,61.60
2019-05-01T22:30:05.879Z,57.20
2019-05-01T22:32:41.298Z,63.20
2019-05-01T22:35:17.120Z,58.40
2019-05-01T22:37:48.626Z,67.20
2019-05-01T22:40:25.237Z,70.20
2019-05-01T22:42:57.479Z,71.00
2019-05-01T22:45:29.578Z,70.80
2019-05-01T22:48:01.443Z,75.00
2019-05-01T22:50:32.868Z,75.50
2019-05-01T22:53:07.975Z,80.00
2019-05-01T22:55:37.744Z,70.40
2019-05-01T22:58:09.143Z,65.40
2019-05-01T23:00:46.302Z,58.80
2019-05-01T23:03:25.341Z,55.60
2019-05-01T23:05:57.069Z,51.80
2019-05-01T23:08:28.491Z,50.80
2019-05-01T23:11:00.893Z,48.80
2019-05-01T23:13:33.128Z,48.00
2019-05-01T23:16:05.742Z,51.20
2019-05-01T23:18:37.302Z,47.00
2019-05-01T23:21:09.760Z,47.20
2019-05-01T23:23:42.340Z,45.00
2019-05-01T23:26:16.543Z,45.40
2019-05-01T23:28:47.509Z,46.20
2019-05-01T23:31:19.676Z,45.20
2019-05-01T23:33:51.899Z,48.40
2019-05-01T23:36:24.031Z,47.60
2019-05-01T23:38:55.669Z,52.40
2019-05-01T23:41:44.616Z,46.60
2019-05-01T23:44:03.404Z,45.80
2019-05-01T23:46:34.469Z,42.20
2019-05-01T23:49:05.926Z,42.40
2019-05-01T23:51:37.769Z,47.20
2019-05-01T23:54:09.241Z,45.00
2019-05-01T23:56:40.937Z,51.40
2019-05-01T23:59:12.702Z,42.80
